Singer Island, Florida
Current Conditions -  °F | °C
As of 2:53 PM on Sunday 23 Nov 2014 (Local Time) from KPBI Reporting Station
Broken Clouds Broken Clouds  
Wind Chill: 28°   Ceiling: 3100
Heat Index: 31°   Visibility: 10mi
Dew Point: 23°   Wind: 20mph
Humidity: 76%   Direction: 140°SE
Pressure: 29.91"   Gusts: 24mph
Location:  26.7789°N, 80.0745°W
Report Text: KPBI 231953Z 14017G21KT 10SM SCT018 BKN031 28/23 A2991 RMK AO2 SLP129 T02780233
Loading
Personal Weather Stations






























Interactive Weather Map New forecast layout! Learn more

10-Day Weather Forecast

Advertisements
Track Severe Weather on mobile